sensor_id;sensor_type;location;lat;lon;timestamp;temperature;humidity
63960;DHT22;50136;51.374;0.096;2023-11-18T00:00:29;8.60;99.90
63960;DHT22;50136;51.374;0.096;2023-11-18T00:10:31;8.70;99.90
63960;DHT22;50136;51.374;0.096;2023-11-18T00:20:34;8.80;99.90
63960;DHT22;50136;51.374;0.096;2023-11-18T00:30:36;8.80;99.90
63960;DHT22;50136;51.374;0.096;2023-11-18T00:40:40;8.80;99.90
63960;DHT22;50136;51.374;0.096;2023-11-18T00:50:42;8.70;99.90
63960;DHT22;50136;51.374;0.096;2023-11-18T01:00:45;8.80;99.90
63960;DHT22;50136;51.374;0.096;2023-11-18T01:10:47;8.70;99.90
63960;DHT22;50136;51.374;0.096;2023-11-18T01:20:51;8.70;99.90
63960;DHT22;50136;51.374;0.096;2023-11-18T01:30:53;8.50;99.90
63960;DHT22;50136;51.374;0.096;2023-11-18T01:40:56;8.50;99.90
63960;DHT22;50136;51.374;0.096;2023-11-18T01:50:58;8.60;99.90
63960;DHT22;50136;51.374;0.096;2023-11-18T02:01:02;8.50;99.90
63960;DHT22;50136;51.374;0.096;2023-11-18T02:11:13;8.50;99.90
63960;DHT22;50136;51.374;0.096;2023-11-18T02:21:17;8.60;99.90
63960;DHT22;50136;51.374;0.096;2023-11-18T02:31:25;8.60;99.90
63960;DHT22;50136;51.374;0.096;2023-11-18T02:41:29;8.80;99.90
63960;DHT22;50136;51.374;0.096;2023-11-18T02:51:32;8.80;99.90
63960;DHT22;50136;51.374;0.096;2023-11-18T03:01:34;9.00;99.90
63960;DHT22;50136;51.374;0.096;2023-11-18T03:11:38;9.10;99.90
63960;DHT22;50136;51.374;0.096;2023-11-18T03:21:40;9.20;99.90
63960;DHT22;50136;51.374;0.096;2023-11-18T03:31:43;9.30;99.90
63960;DHT22;50136;51.374;0.096;2023-11-18T03:41:45;9.40;99.90
63960;DHT22;50136;51.374;0.096;2023-11-18T03:51:49;9.50;99.90
63960;DHT22;50136;51.374;0.096;2023-11-18T04:01:51;9.60;99.90
63960;DHT22;50136;51.374;0.096;2023-11-18T04:11:54;9.70;99.90
63960;DHT22;50136;51.374;0.096;2023-11-18T04:21:56;9.80;99.90
63960;DHT22;50136;51.374;0.096;2023-11-18T04:32:00;9.90;99.90
63960;DHT22;50136;51.374;0.096;2023-11-18T04:42:02;10.00;99.90
63960;DHT22;50136;51.374;0.096;2023-11-18T04:52:06;10.10;99.90
63960;DHT22;50136;51.374;0.096;2023-11-18T05:02:07;10.20;99.90
63960;DHT22;50136;51.374;0.096;2023-11-18T05:12:11;10.20;99.90
63960;DHT22;50136;51.374;0.096;2023-11-18T05:22:13;10.30;99.90
63960;DHT22;50136;51.374;0.096;2023-11-18T05:32:16;10.40;99.90
63960;DHT22;50136;51.374;0.096;2023-11-18T05:42:18;10.50;99.90
63960;DHT22;50136;51.374;0.096;2023-11-18T05:52:22;10.60;99.90
63960;DHT22;50136;51.374;0.096;2023-11-18T06:02:24;10.70;99.90
63960;DHT22;50136;51.374;0.096;2023-11-18T06:12:28;10.70;99.90
63960;DHT22;50136;51.374;0.096;2023-11-18T06:22:30;10.80;99.90
63960;DHT22;50136;51.374;0.096;2023-11-18T06:32:33;10.80;99.90
63960;DHT22;50136;51.374;0.096;2023-11-18T06:42:35;10.90;99.90
63960;DHT22;50136;51.374;0.096;2023-11-18T06:52:38;11.00;99.90
63960;DHT22;50136;51.374;0.096;2023-11-18T07:02:40;11.10;99.90
63960;DHT22;50136;51.374;0.096;2023-11-18T07:12:44;11.10;99.90
63960;DHT22;50136;51.374;0.096;2023-11-18T07:22:46;11.20;99.90
63960;DHT22;50136;51.374;0.096;2023-11-18T07:32:49;11.30;99.90
63960;DHT22;50136;51.374;0.096;2023-11-18T07:42:51;11.30;99.90
63960;DHT22;50136;51.374;0.096;2023-11-18T07:52:54;11.30;99.90
63960;DHT22;50136;51.374;0.096;2023-11-18T08:02:56;11.40;99.90
63960;DHT22;50136;51.374;0.096;2023-11-18T08:13:00;11.50;99.90
63960;DHT22;50136;51.374;0.096;2023-11-18T08:23:02;11.60;99.90
63960;DHT22;50136;51.374;0.096;2023-11-18T08:33:05;11.70;99.90
63960;DHT22;50136;51.374;0.096;2023-11-18T08:43:07;11.90;99.90
63960;DHT22;50136;51.374;0.096;2023-11-18T08:53:14;12.00;99.90
63960;DHT22;50136;51.374;0.096;2023-11-18T09:03:19;12.20;99.90
63960;DHT22;50136;51.374;0.096;2023-11-18T09:13:24;12.40;99.90
63960;DHT22;50136;51.374;0.096;2023-11-18T09:23:26;12.60;99.90
63960;DHT22;50136;51.374;0.096;2023-11-18T09:33:31;12.70;99.90
63960;DHT22;50136;51.374;0.096;2023-11-18T09:43:34;12.90;99.90
63960;DHT22;50136;51.374;0.096;2023-11-18T09:53:38;13.10;99.90
63960;DHT22;50136;51.374;0.096;2023-11-18T10:03:42;13.20;99.90
63960;DHT22;50136;51.374;0.096;2023-11-18T10:13:45;13.30;99.90
63960;DHT22;50136;51.374;0.096;2023-11-18T10:23:59;13.50;99.90
63960;DHT22;50136;51.374;0.096;2023-11-18T10:44:57;13.80;99.90
63960;DHT22;50136;51.374;0.096;2023-11-18T10:54:59;13.90;99.90
63960;DHT22;50136;51.374;0.096;2023-11-18T11:05:03;14.10;99.90
63960;DHT22;50136;51.374;0.096;2023-11-18T11:15:10;14.10;99.90
63960;DHT22;50136;51.374;0.096;2023-11-18T11:25:20;14.20;99.90
63960;DHT22;50136;51.374;0.096;2023-11-18T11:35:30;14.40;99.90
63960;DHT22;50136;51.374;0.096;2023-11-18T11:45:34;14.50;99.90
63960;DHT22;50136;51.374;0.096;2023-11-18T11:55:40;14.60;99.90
63960;DHT22;50136;51.374;0.096;2023-11-18T12:05:48;14.60;99.90
63960;DHT22;50136;51.374;0.096;2023-11-18T12:15:51;14.80;99.90
63960;DHT22;50136;51.374;0.096;2023-11-18T12:25:55;14.90;99.90
63960;DHT22;50136;51.374;0.096;2023-11-18T12:36:29;14.90;99.90
63960;DHT22;50136;51.374;0.096;2023-11-18T12:46:51;15.00;99.90
63960;DHT22;50136;51.374;0.096;2023-11-18T12:57:03;15.10;99.90
63960;DHT22;50136;51.374;0.096;2023-11-18T13:07:17;15.20;99.90
63960;DHT22;50136;51.374;0.096;2023-11-18T13:17:19;15.20;99.90
63960;DHT22;50136;51.374;0.096;2023-11-18T13:27:23;15.20;99.90
63960;DHT22;50136;51.374;0.096;2023-11-18T13:37:25;15.20;99.90
63960;DHT22;50136;51.374;0.096;2023-11-18T13:47:28;15.20;99.90
63960;DHT22;50136;51.374;0.096;2023-11-18T13:57:30;15.10;99.90
63960;DHT22;50136;51.374;0.096;2023-11-18T14:07:37;15.00;99.90
63960;DHT22;50136;51.374;0.096;2023-11-18T14:17:40;14.90;99.90
63960;DHT22;50136;51.374;0.096;2023-11-18T14:27:43;14.80;99.90
63960;DHT22;50136;51.374;0.096;2023-11-18T14:37:45;14.70;99.90
63960;DHT22;50136;51.374;0.096;2023-11-18T14:47:49;14.70;99.90
63960;DHT22;50136;51.374;0.096;2023-11-18T14:57:51;14.70;99.90
63960;DHT22;50136;51.374;0.096;2023-11-18T15:07:55;14.70;99.90
63960;DHT22;50136;51.374;0.096;2023-11-18T15:17:59;14.60;99.90
63960;DHT22;50136;51.374;0.096;2023-11-18T15:28:03;14.50;99.90
63960;DHT22;50136;51.374;0.096;2023-11-18T15:38:05;14.40;99.90
63960;DHT22;50136;51.374;0.096;2023-11-18T15:48:08;14.30;99.90
63960;DHT22;50136;51.374;0.096;2023-11-18T15:58:10;14.20;99.90
63960;DHT22;50136;51.374;0.096;2023-11-18T16:08:14;14.10;99.90
63960;DHT22;50136;51.374;0.096;2023-11-18T16:18:16;14.10;99.90
63960;DHT22;50136;51.374;0.096;2023-11-18T16:28:19;14.10;99.90
63960;DHT22;50136;51.374;0.096;2023-11-18T16:38:21;14.10;99.90
63960;DHT22;50136;51.374;0.096;2023-11-18T16:48:24;14.00;99.90
63960;DHT22;50136;51.374;0.096;2023-11-18T16:58:26;14.00;99.90
63960;DHT22;50136;51.374;0.096;2023-11-18T17:08:30;14.00;99.90
63960;DHT22;50136;51.374;0.096;2023-11-18T17:18:35;14.00;99.90
63960;DHT22;50136;51.374;0.096;2023-11-18T17:28:38;14.10;99.90
63960;DHT22;50136;51.374;0.096;2023-11-18T17:38:40;14.00;99.90
63960;DHT22;50136;51.374;0.096;2023-11-18T17:48:44;14.10;99.90
63960;DHT22;50136;51.374;0.096;2023-11-18T17:58:46;14.10;99.90
63960;DHT22;50136;51.374;0.096;2023-11-18T18:08:49;14.00;99.90
63960;DHT22;50136;51.374;0.096;2023-11-18T18:18:51;13.90;99.90
63960;DHT22;50136;51.374;0.096;2023-11-18T18:28:55;13.90;99.90
63960;DHT22;50136;51.374;0.096;2023-11-18T18:38:59;13.90;99.90
63960;DHT22;50136;51.374;0.096;2023-11-18T18:49:02;13.80;99.90
63960;DHT22;50136;51.374;0.096;2023-11-18T18:59:04;13.80;99.90
63960;DHT22;50136;51.374;0.096;2023-11-18T19:09:08;13.80;99.90
63960;DHT22;50136;51.374;0.096;2023-11-18T19:19:10;13.90;99.90
63960;DHT22;50136;51.374;0.096;2023-11-18T19:29:14;13.90;99.90
63960;DHT22;50136;51.374;0.096;2023-11-18T19:39:16;13.90;99.90
63960;DHT22;50136;51.374;0.096;2023-11-18T19:49:19;13.90;99.90
63960;DHT22;50136;51.374;0.096;2023-11-18T19:59:21;13.90;99.90
63960;DHT22;50136;51.374;0.096;2023-11-18T20:09:25;13.90;99.90
63960;DHT22;50136;51.374;0.096;2023-11-18T20:19:27;13.80;99.90
63960;DHT22;50136;51.374;0.096;2023-11-18T20:29:30;13.70;99.90
63960;DHT22;50136;51.374;0.096;2023-11-18T20:39:32;13.60;99.90
63960;DHT22;50136;51.374;0.096;2023-11-18T20:49:35;13.60;99.90
63960;DHT22;50136;51.374;0.096;2023-11-18T20:59:37;13.50;99.90
63960;DHT22;50136;51.374;0.096;2023-11-18T21:09:41;13.40;99.90
63960;DHT22;50136;51.374;0.096;2023-11-18T21:19:43;13.30;99.90
63960;DHT22;50136;51.374;0.096;2023-11-18T21:29:46;13.30;99.90
63960;DHT22;50136;51.374;0.096;2023-11-18T21:39:48;13.30;99.90
63960;DHT22;50136;51.374;0.096;2023-11-18T21:49:58;13.30;99.90
63960;DHT22;50136;51.374;0.096;2023-11-18T22:00:02;13.10;99.90
63960;DHT22;50136;51.374;0.096;2023-11-18T22:10:14;13.00;99.90
63960;DHT22;50136;51.374;0.096;2023-11-18T22:20:17;12.80;99.90
63960;DHT22;50136;51.374;0.096;2023-11-18T22:30:20;12.70;99.90
63960;DHT22;50136;51.374;0.096;2023-11-18T22:40:22;12.50;99.90
63960;DHT22;50136;51.374;0.096;2023-11-18T22:50:26;12.40;99.90
63960;DHT22;50136;51.374;0.096;2023-11-18T23:00:28;12.30;99.90
63960;DHT22;50136;51.374;0.096;2023-11-18T23:10:31;12.30;99.90
63960;DHT22;50136;51.374;0.096;2023-11-18T23:20:33;12.20;99.90
63960;DHT22;50136;51.374;0.096;2023-11-18T23:30:37;12.10;99.90
63960;DHT22;50136;51.374;0.096;2023-11-18T23:40:40;12.00;99.90
63960;DHT22;50136;51.374;0.096;2023-11-18T23:50:43;12.00;99.90
